Aviation Digital Data Service (ADDS)

Output produced by METARs form (1903 UTC 25 September 2020)
found at http://www.aviationweather.gov/metar/data/
 
METAR text: LEBB 251843Z 30025G35KT 9999 SHRA FEW020 FEW030TCU BKN040 14/11 Q1023 NOSIG
Conditions at: LEBB (BILBAO/SONDICA , ES) observed 1843 UTC 25 September 2020
Temperature: 14.0°C (57°F)
Dewpoint: 11.0°C (52°F) [RH = 82%]
Pressure (altimeter): 30.21 inches Hg (1023.0 mb)
Winds: from the WNW (300 degrees) at 29 MPH (25 knots; 12.9 m/s)
gusting to 40 MPH (35 knots; 18.0 m/s)
Visibility: 6 or more miles (10+ km)
Ceiling: 4000 feet AGL
Clouds: few clouds at 2000 feet AGL
few clouds at 3000 feet AGL
broken clouds at 4000 feet AGL
Weather: SHRA  (rain showers)

METAR text: LEBB 251830Z 28009KT 230V310 9999 FEW020 FEW030TCU SCT040 15/10 Q1023 TEMPO SHRA SCT025TCU
Conditions at: LEBB (BILBAO/SONDICA , ES) observed 1830 UTC 25 September 2020
Temperature: 15.0°C (59°F)
Dewpoint: 10.0°C (50°F) [RH = 72%]
Pressure (altimeter): 30.21 inches Hg (1023.0 mb)
Winds: from the W (280 degrees) at 10 MPH (9 knots; 4.6 m/s)
Visibility: 6 or more miles (10+ km)
Ceiling: at least 12,000 feet AGL
Clouds: few clouds at 2000 feet AGL
few clouds at 3000 feet AGL
scattered clouds at 4000 feet AGL
Weather: no significant weather observed at this time

METAR text: LEBB 251800Z 30021G31KT 270V340 7000 FEW020 FEW030TCU BKN040 16/10 Q1022 TEMPO SHRA SCT025TCU
Conditions at: LEBB (BILBAO/SONDICA , ES) observed 1800 UTC 25 September 2020
Temperature: 16.0°C (61°F)
Dewpoint: 10.0°C (50°F) [RH = 68%]
Pressure (altimeter): 30.18 inches Hg (1022.0 mb)
Winds: from the WNW (300 degrees) at 24 MPH (21 knots; 10.8 m/s)
gusting to 36 MPH (31 knots; 15.9 m/s)
Visibility: 4 miles ( 7 km)
Ceiling: 4000 feet AGL
Clouds: few clouds at 2000 feet AGL
few clouds at 3000 feet AGL
broken clouds at 4000 feet AGL
Weather: no significant weather observed at this time

METAR text: LEBB 251730Z 31019G30KT 270V340 9999 FEW020 FEW030TCU BKN040 16/10 Q1022 TEMPO SHRA SCT025TCU
Conditions at: LEBB (BILBAO/SONDICA , ES) observed 1730 UTC 25 September 2020
Temperature: 16.0°C (61°F)
Dewpoint: 10.0°C (50°F) [RH = 68%]
Pressure (altimeter): 30.18 inches Hg (1022.0 mb)
Winds: from the NW (310 degrees) at 22 MPH (19 knots; 9.8 m/s)
gusting to 34 MPH (30 knots; 15.4 m/s)
Visibility: 6 or more miles (10+ km)
Ceiling: 4000 feet AGL
Clouds: few clouds at 2000 feet AGL
few clouds at 3000 feet AGL
broken clouds at 4000 feet AGL
Weather: no significant weather observed at this time

METAR text: LEBB 251700Z 30025G41KT 9999 -RA FEW020 FEW030TCU BKN040 15/10 Q1022 RESHRA TEMPO SHRA SCT025TCU
Conditions at: LEBB (BILBAO/SONDICA , ES) observed 1700 UTC 25 September 2020
Temperature: 15.0°C (59°F)
Dewpoint: 10.0°C (50°F) [RH = 72%]
Pressure (altimeter): 30.18 inches Hg (1022.0 mb)
Winds: from the WNW (300 degrees) at 29 MPH (25 knots; 12.9 m/s)
gusting to 47 MPH (41 knots; 21.1 m/s)
Visibility: 6 or more miles (10+ km)
Ceiling: 4000 feet AGL
Clouds: few clouds at 2000 feet AGL
few clouds at 3000 feet AGL
broken clouds at 4000 feet AGL
Weather: -RA  (light rain)

METAR text: LEBB 251630Z 31019G30KT 280V340 9999 FEW020 FEW030TCU BKN040 16/10 Q1022 RESHRA TEMPO 3000 SHRA SCT025TCU
Conditions at: LEBB (BILBAO/SONDICA , ES) observed 1630 UTC 25 September 2020
Temperature: 16.0°C (61°F)
Dewpoint: 10.0°C (50°F) [RH = 68%]
Pressure (altimeter): 30.18 inches Hg (1022.0 mb)
Winds: from the NW (310 degrees) at 22 MPH (19 knots; 9.8 m/s)
gusting to 34 MPH (30 knots; 15.4 m/s)
Visibility: 6 or more miles (10+ km)
Ceiling: 4000 feet AGL
Clouds: few clouds at 2000 feet AGL
few clouds at 3000 feet AGL
broken clouds at 4000 feet AGL
Weather: no significant weather observed at this time

METAR text: LEBB 251600Z 33020G32KT 300V010 7000 SHRA FEW020 FEW030TCU BKN040 14/11 Q1022 TEMPO 3000 SHRA SCT025TCU
Conditions at: LEBB (BILBAO/SONDICA , ES) observed 1600 UTC 25 September 2020
Temperature: 14.0°C (57°F)
Dewpoint: 11.0°C (52°F) [RH = 82%]
Pressure (altimeter): 30.18 inches Hg (1022.0 mb)
Winds: from the NNW (330 degrees) at 23 MPH (20 knots; 10.3 m/s)
gusting to 37 MPH (32 knots; 16.5 m/s)
Visibility: 4 miles ( 7 km)
Ceiling: 4000 feet AGL
Clouds: few clouds at 2000 feet AGL
few clouds at 3000 feet AGL
broken clouds at 4000 feet AGL
Weather: SHRA  (rain showers)

METAR text: LEBB 251530Z 29020G30KT 250V320 9999 FEW020 FEW030TCU SCT040 17/10 Q1022 RERA TEMPO 3000 SHRA SCT025TCU
Conditions at: LEBB (BILBAO/SONDICA , ES) observed 1530 UTC 25 September 2020
Temperature: 17.0°C (63°F)
Dewpoint: 10.0°C (50°F) [RH = 63%]
Pressure (altimeter): 30.18 inches Hg (1022.0 mb)
Winds: from the WNW (290 degrees) at 23 MPH (20 knots; 10.3 m/s)
gusting to 34 MPH (30 knots; 15.4 m/s)
Visibility: 6 or more miles (10+ km)
Ceiling: at least 12,000 feet AGL
Clouds: few clouds at 2000 feet AGL
few clouds at 3000 feet AGL
scattered clouds at 4000 feet AGL
Weather: no significant weather observed at this time

METAR text: LEBB 251500Z 30024G35KT 270V330 9999 FEW020 FEW030TCU BKN040 17/11 Q1021 RERA TEMPO 3000 SHRA SCT025TCU
Conditions at: LEBB (BILBAO/SONDICA , ES) observed 1500 UTC 25 September 2020
Temperature: 17.0°C (63°F)
Dewpoint: 11.0°C (52°F) [RH = 68%]
Pressure (altimeter): 30.15 inches Hg (1021.0 mb)
Winds: from the WNW (300 degrees) at 28 MPH (24 knots; 12.3 m/s)
gusting to 40 MPH (35 knots; 18.0 m/s)
Visibility: 6 or more miles (10+ km)
Ceiling: 4000 feet AGL
Clouds: few clouds at 2000 feet AGL
few clouds at 3000 feet AGL
broken clouds at 4000 feet AGL
Weather: no significant weather observed at this time

METAR text: LEBB 251430Z 31025G38KT 8000 RA FEW017 FEW030TCU BKN040 14/10 Q1022 TEMPO 3000 SHRA SCT025TCU
Conditions at: LEBB (BILBAO/SONDICA , ES) observed 1430 UTC 25 September 2020
Temperature: 14.0°C (57°F)
Dewpoint: 10.0°C (50°F) [RH = 77%]
Pressure (altimeter): 30.18 inches Hg (1022.0 mb)
Winds: from the NW (310 degrees) at 29 MPH (25 knots; 12.9 m/s)
gusting to 44 MPH (38 knots; 19.5 m/s)
Visibility: 5 miles ( 8 km)
Ceiling: 4000 feet AGL
Clouds: few clouds at 1700 feet AGL
few clouds at 3000 feet AGL
broken clouds at 4000 feet AGL
Weather: RA  (moderate rain)

METAR text: LEBB 251400Z 30026G41KT 9999 FEW022 FEW030TCU BKN040 15/11 Q1021 TEMPO 3000 SHRA SCT025TCU
Conditions at: LEBB (BILBAO/SONDICA , ES) observed 1400 UTC 25 September 2020
Temperature: 15.0°C (59°F)
Dewpoint: 11.0°C (52°F) [RH = 77%]
Pressure (altimeter): 30.15 inches Hg (1021.0 mb)
Winds: from the WNW (300 degrees) at 30 MPH (26 knots; 13.4 m/s)
gusting to 47 MPH (41 knots; 21.1 m/s)
Visibility: 6 or more miles (10+ km)
Ceiling: 4000 feet AGL
Clouds: few clouds at 2200 feet AGL
few clouds at 3000 feet AGL
broken clouds at 4000 feet AGL
Weather: no significant weather observed at this time

METAR text: LEBB 251330Z 29020G33KT 260V330 9999 FEW022 FEW030TCU BKN040 16/11 Q1021 TEMPO 3000 SHRA SCT025TCU
Conditions at: LEBB (BILBAO/SONDICA , ES) observed 1330 UTC 25 September 2020
Temperature: 16.0°C (61°F)
Dewpoint: 11.0°C (52°F) [RH = 72%]
Pressure (altimeter): 30.15 inches Hg (1021.0 mb)
Winds: from the WNW (290 degrees) at 23 MPH (20 knots; 10.3 m/s)
gusting to 38 MPH (33 knots; 17.0 m/s)
Visibility: 6 or more miles (10+ km)
Ceiling: 4000 feet AGL
Clouds: few clouds at 2200 feet AGL
few clouds at 3000 feet AGL
broken clouds at 4000 feet AGL
Weather: no significant weather observed at this time

METAR text: LEBB 251300Z 30030G44KT 8000 -RA FEW022 FEW030TCU BKN040 13/10 Q1021 TEMPO 3000 SHRA SCT025TCU
Conditions at: LEBB (BILBAO/SONDICA , ES) observed 1300 UTC 25 September 2020
Temperature: 13.0°C (55°F)
Dewpoint: 10.0°C (50°F) [RH = 82%]
Pressure (altimeter): 30.15 inches Hg (1021.0 mb)
Winds: from the WNW (300 degrees) at 34 MPH (30 knots; 15.4 m/s)
gusting to 51 MPH (44 knots; 22.6 m/s)
Visibility: 5 miles ( 8 km)
Ceiling: 4000 feet AGL
Clouds: few clouds at 2200 feet AGL
few clouds at 3000 feet AGL
broken clouds at 4000 feet AGL
Weather: -RA  (light rain)

METAR text: LEBB 251230Z 29026G43KT 260V320 9999 FEW030TCU SCT045 18/08 Q1020 TEMPO 3000 SHRA SCT025CB
Conditions at: LEBB (BILBAO/SONDICA , ES) observed 1230 UTC 25 September 2020
Temperature: 18.0°C (64°F)
Dewpoint: 8.0°C (46°F) [RH = 52%]
Pressure (altimeter): 30.12 inches Hg (1020.0 mb)
Winds: from the WNW (290 degrees) at 30 MPH (26 knots; 13.4 m/s)
gusting to 49 MPH (43 knots; 22.1 m/s)
Visibility: 6 or more miles (10+ km)
Ceiling: at least 12,000 feet AGL
Clouds: few clouds at 3000 feet AGL
scattered clouds at 4500 feet AGL
Weather: no significant weather observed at this time

METAR text: LEBB 251200Z 30025G36KT 9999 FEW030TCU SCT045 17/08 Q1020 TEMPO 3000 SHRA SCT025CB
Conditions at: LEBB (BILBAO/SONDICA , ES) observed 1200 UTC 25 September 2020
Temperature: 17.0°C (63°F)
Dewpoint: 8.0°C (46°F) [RH = 55%]
Pressure (altimeter): 30.12 inches Hg (1020.0 mb)
Winds: from the WNW (300 degrees) at 29 MPH (25 knots; 12.9 m/s)
gusting to 41 MPH (36 knots; 18.5 m/s)
Visibility: 6 or more miles (10+ km)
Ceiling: at least 12,000 feet AGL
Clouds: few clouds at 3000 feet AGL
scattered clouds at 4500 feet AGL
Weather: no significant weather observed at this time

METAR text: LEBB 251130Z 29023G35KT 260V330 9999 FEW040TCU 17/10 Q1020 TEMPO 3000 SHRA SCT025CB
Conditions at: LEBB (BILBAO/SONDICA , ES) observed 1130 UTC 25 September 2020
Temperature: 17.0°C (63°F)
Dewpoint: 10.0°C (50°F) [RH = 63%]
Pressure (altimeter): 30.12 inches Hg (1020.0 mb)
Winds: from the WNW (290 degrees) at 26 MPH (23 knots; 11.8 m/s)
gusting to 40 MPH (35 knots; 18.0 m/s)
Visibility: 6 or more miles (10+ km)
Ceiling: at least 12,000 feet AGL
Clouds: few clouds at 4000 feet AGL
Weather: no significant weather observed at this time

METAR text: LEBB 251100Z 29024G36KT 260V330 9999 FEW035TCU SCT050 17/09 Q1020 TEMPO 3000 SHRA SCT025CB
Conditions at: LEBB (BILBAO/SONDICA , ES) observed 1100 UTC 25 September 2020
Temperature: 17.0°C (63°F)
Dewpoint: 9.0°C (48°F) [RH = 59%]
Pressure (altimeter): 30.12 inches Hg (1020.0 mb)
Winds: from the WNW (290 degrees) at 28 MPH (24 knots; 12.3 m/s)
gusting to 41 MPH (36 knots; 18.5 m/s)
Visibility: 6 or more miles (10+ km)
Ceiling: at least 12,000 feet AGL
Clouds: few clouds at 3500 feet AGL
scattered clouds at 5000 feet AGL
Weather: no significant weather observed at this time

METAR text: LEBB 251030Z 28014KT 240V320 9999 FEW025TCU SCT048 16/10 Q1020 TEMPO 28025G38KT 3000 SHRA SCT025CB
Conditions at: LEBB (BILBAO/SONDICA , ES) observed 1030 UTC 25 September 2020
Temperature: 16.0°C (61°F)
Dewpoint: 10.0°C (50°F) [RH = 68%]
Pressure (altimeter): 30.12 inches Hg (1020.0 mb)
Winds: from the W (280 degrees) at 16 MPH (14 knots; 7.2 m/s)
Visibility: 6 or more miles (10+ km)
Ceiling: at least 12,000 feet AGL
Clouds: few clouds at 2500 feet AGL
scattered clouds at 4800 feet AGL
Weather: no significant weather observed at this time

METAR text: LEBB 251000Z 27012KT 220V300 9999 FEW018 SCT032TCU BKN050 15/11 Q1020 RESHRA TEMPO 3000 +SHRA TS BKN025CB
Conditions at: LEBB (BILBAO/SONDICA , ES) observed 1000 UTC 25 September 2020
Temperature: 15.0°C (59°F)
Dewpoint: 11.0°C (52°F) [RH = 77%]
Pressure (altimeter): 30.12 inches Hg (1020.0 mb)
Winds: from the W (270 degrees) at 14 MPH (12 knots; 6.2 m/s)
Visibility: 6 or more miles (10+ km)
Ceiling: 5000 feet AGL
Clouds: few clouds at 1800 feet AGL
scattered clouds at 3200 feet AGL
broken clouds at 5000 feet AGL
Weather: no significant weather observed at this time

METAR text: LEBB 250930Z 27011G21KT 210V300 7000 -RA FEW018 SCT032TCU BKN050 14/11 Q1019 RESHRA TEMPO 3000 +SHRA TS BKN025CB
Conditions at: LEBB (BILBAO/SONDICA , ES) observed 0930 UTC 25 September 2020
Temperature: 14.0°C (57°F)
Dewpoint: 11.0°C (52°F) [RH = 82%]
Pressure (altimeter): 30.09 inches Hg (1019.0 mb)
Winds: from the W (270 degrees) at 13 MPH (11 knots; 5.7 m/s)
gusting to 24 MPH (21 knots; 10.8 m/s)
Visibility: 4 miles ( 7 km)
Ceiling: 5000 feet AGL
Clouds: few clouds at 1800 feet AGL
scattered clouds at 3200 feet AGL
broken clouds at 5000 feet AGL
Weather: -RA  (light rain)

METAR text: LEBB 250909Z 28013KT 240V300 8000 -RA FEW012 SCT028TCU BKN040 13/11 Q1019 RESHRA TEMPO 3000 +SHRA TS BKN025CB
Conditions at: LEBB (BILBAO/SONDICA , ES) observed 0909 UTC 25 September 2020
Temperature: 13.0°C (55°F)
Dewpoint: 11.0°C (52°F) [RH = 88%]
Pressure (altimeter): 30.09 inches Hg (1019.0 mb)
Winds: from the W (280 degrees) at 15 MPH (13 knots; 6.7 m/s)
Visibility: 5 miles ( 8 km)
Ceiling: 4000 feet AGL
Clouds: few clouds at 1200 feet AGL
scattered clouds at 2800 feet AGL
broken clouds at 4000 feet AGL
Weather: -RA  (light rain)

METAR text: LEBB 250902Z 28012KT 4500 SHRA FEW014 SCT026TCU BKN036 13/11 Q1019 TEMPO +SHRA TS BKN025CB
Conditions at: LEBB (BILBAO/SONDICA , ES) observed 0902 UTC 25 September 2020
Temperature: 13.0°C (55°F)
Dewpoint: 11.0°C (52°F) [RH = 88%]
Pressure (altimeter): 30.09 inches Hg (1019.0 mb)
Winds: from the W (280 degrees) at 14 MPH (12 knots; 6.2 m/s)
Visibility: 2.80 miles (4.51 km)
Ceiling: 3600 feet AGL
Clouds: few clouds at 1400 feet AGL
scattered clouds at 2600 feet AGL
broken clouds at 3600 feet AGL
Weather: SHRA  (rain showers)

METAR text: LEBB 250900Z VRB09KT 7000 SHRA FEW014 SCT026TCU BKN050 13/10 Q1019 TEMPO 3000 +SHRA TS BKN025CB
Conditions at: LEBB (BILBAO/SONDICA , ES) observed 0900 UTC 25 September 2020
Temperature: 13.0°C (55°F)
Dewpoint: 10.0°C (50°F) [RH = 82%]
Pressure (altimeter): 30.09 inches Hg (1019.0 mb)
Winds: variable direction winds at 10 MPH (9 knots; 4.6 m/s)
Visibility: 4 miles ( 7 km)
Ceiling: 5000 feet AGL
Clouds: few clouds at 1400 feet AGL
scattered clouds at 2600 feet AGL
broken clouds at 5000 feet AGL
Weather: SHRA  (rain showers)

METAR text: LEBB 250844Z 28005KT 240V320 5000 SHRA FEW020TCU BKN040 12/10 Q1019 TEMPO 3000 +SHRA TS BKN025CB
Conditions at: LEBB (BILBAO/SONDICA , ES) observed 0844 UTC 25 September 2020
Temperature: 12.0°C (54°F)
Dewpoint: 10.0°C (50°F) [RH = 88%]
Pressure (altimeter): 30.09 inches Hg (1019.0 mb)
Winds: from the W (280 degrees) at 6 MPH (5 knots; 2.6 m/s)
Visibility: 3 miles ( 5 km)
Ceiling: 4000 feet AGL
Clouds: few clouds at 2000 feet AGL
broken clouds at 4000 feet AGL
Weather: SHRA  (rain showers)

METAR text: LEBB 250830Z 27016G28KT 220V300 9999 3000SE -RA FEW014 SCT025TCU 12/10 Q1019 RESHRA TEMPO 3000 +SHRA TS BKN025CB
Conditions at: LEBB (BILBAO/SONDICA , ES) observed 0830 UTC 25 September 2020
Temperature: 12.0°C (54°F)
Dewpoint: 10.0°C (50°F) [RH = 88%]
Pressure (altimeter): 30.09 inches Hg (1019.0 mb)
Winds: from the W (270 degrees) at 18 MPH (16 knots; 8.2 m/s)
gusting to 32 MPH (28 knots; 14.4 m/s)
Visibility: 6 or more miles (10+ km)
Ceiling: at least 12,000 feet AGL
Clouds: few clouds at 1400 feet AGL
scattered clouds at 2500 feet AGL
Weather: -RA  (light rain)

METAR text: LEBB 250812Z 26012KT 200V300 6000 SHRA SCT025TCU BKN045 13/10 Q1019 TEMPO 28025G38KT 1500 +SHRA TS BKN025CB
Conditions at: LEBB (BILBAO/SONDICA , ES) observed 0812 UTC 25 September 2020
Temperature: 13.0°C (55°F)
Dewpoint: 10.0°C (50°F) [RH = 82%]
Pressure (altimeter): 30.09 inches Hg (1019.0 mb)
Winds: from the W (260 degrees) at 14 MPH (12 knots; 6.2 m/s)
Visibility: 4 miles ( 6 km)
Ceiling: 4500 feet AGL
Clouds: scattered clouds at 2500 feet AGL
broken clouds at 4500 feet AGL
Weather: SHRA  (rain showers)

METAR text: LEBB 250800Z 26011KT 220V300 9999 FEW025TCU SCT050 13/10 Q1019 RESHRA TEMPO 28025G38KT 1500 +SHRA TS BKN025CB
Conditions at: LEBB (BILBAO/SONDICA , ES) observed 0800 UTC 25 September 2020
Temperature: 13.0°C (55°F)
Dewpoint: 10.0°C (50°F) [RH = 82%]
Pressure (altimeter): 30.09 inches Hg (1019.0 mb)
Winds: from the W (260 degrees) at 13 MPH (11 knots; 5.7 m/s)
Visibility: 6 or more miles (10+ km)
Ceiling: at least 12,000 feet AGL
Clouds: few clouds at 2500 feet AGL
scattered clouds at 5000 feet AGL
Weather: no significant weather observed at this time

METAR text: LEBB 250750Z 27011G21KT 220V300 9999 SCT025TCU BKN044 13/11 Q1019 RESHRA TEMPO 28025G38KT 3000 TSRA BKN025CB
Conditions at: LEBB (BILBAO/SONDICA , ES) observed 0750 UTC 25 September 2020
Temperature: 13.0°C (55°F)
Dewpoint: 11.0°C (52°F) [RH = 88%]
Pressure (altimeter): 30.09 inches Hg (1019.0 mb)
Winds: from the W (270 degrees) at 13 MPH (11 knots; 5.7 m/s)
gusting to 24 MPH (21 knots; 10.8 m/s)
Visibility: 6 or more miles (10+ km)
Ceiling: 4400 feet AGL
Clouds: scattered clouds at 2500 feet AGL
broken clouds at 4400 feet AGL
Weather: no significant weather observed at this time

METAR text: LEBB 250739Z 29015G27KT 230V320 4000 SHRA SCT025TCU BKN044 12/10 Q1019 TEMPO 28025G38KT TSRA BKN025CB
Conditions at: LEBB (BILBAO/SONDICA , ES) observed 0739 UTC 25 September 2020
Temperature: 12.0°C (54°F)
Dewpoint: 10.0°C (50°F) [RH = 88%]
Pressure (altimeter): 30.09 inches Hg (1019.0 mb)
Winds: from the WNW (290 degrees) at 17 MPH (15 knots; 7.7 m/s)
gusting to 31 MPH (27 knots; 13.9 m/s)
Visibility: 2.49 miles (4.01 km)
Ceiling: 4400 feet AGL
Clouds: scattered clouds at 2500 feet AGL
broken clouds at 4400 feet AGL
Weather: SHRA  (rain showers)

METAR text: LEBB 250730Z 31009KT 260V340 2000 +SHRA SCT030TCU BKN046 12/10 Q1018 TEMPO 28025G38KT 3000 TSRA BKN025CB
Conditions at: LEBB (BILBAO/SONDICA , ES) observed 0730 UTC 25 September 2020
Temperature: 12.0°C (54°F)
Dewpoint: 10.0°C (50°F) [RH = 88%]
Pressure (altimeter): 30.06 inches Hg (1018.0 mb)
Winds: from the NW (310 degrees) at 10 MPH (9 knots; 4.6 m/s)
Visibility: 1.24 miles (2.00 km)
Ceiling: 4600 feet AGL
Clouds: scattered clouds at 3000 feet AGL
broken clouds at 4600 feet AGL
Weather: +SHRA  (heavy rain showers)

METAR text: LEBB 250729Z 31009KT 280V340 2000 +SHRA SCT030TCU BKN046 12/10 Q1019 TEMPO 28025G38KT 3000 TSRA BKN025CB
Conditions at: LEBB (BILBAO/SONDICA , ES) observed 0729 UTC 25 September 2020
Temperature: 12.0°C (54°F)
Dewpoint: 10.0°C (50°F) [RH = 88%]
Pressure (altimeter): 30.09 inches Hg (1019.0 mb)
Winds: from the NW (310 degrees) at 10 MPH (9 knots; 4.6 m/s)
Visibility: 1.24 miles (2.00 km)
Ceiling: 4600 feet AGL
Clouds: scattered clouds at 3000 feet AGL
broken clouds at 4600 feet AGL
Weather: +SHRA  (heavy rain showers)

METAR text: LEBB 250700Z 28013G23KT 230V310 8000 -RA FEW015 SCT032 BKN055 13/09 Q1018 RERA TEMPO 28025G38KT 3000 TSRA BKN025CB
Conditions at: LEBB (BILBAO/SONDICA , ES) observed 0700 UTC 25 September 2020
Temperature: 13.0°C (55°F)
Dewpoint: 9.0°C (48°F) [RH = 77%]
Pressure (altimeter): 30.06 inches Hg (1018.0 mb)
Winds: from the W (280 degrees) at 15 MPH (13 knots; 6.7 m/s)
gusting to 26 MPH (23 knots; 11.8 m/s)
Visibility: 5 miles ( 8 km)
Ceiling: 5500 feet AGL
Clouds: few clouds at 1500 feet AGL
scattered clouds at 3200 feet AGL
broken clouds at 5500 feet AGL
Weather: -RA  (light rain)

METAR text: LEBB 250640Z 26014G24KT 210V300 9999 FEW028 SCT060 12/09 Q1017 RERA TEMPO 28025G38KT 3000 TSRA BKN025CB
Conditions at: LEBB (BILBAO/SONDICA , ES) observed 0640 UTC 25 September 2020
Temperature: 12.0°C (54°F)
Dewpoint: 9.0°C (48°F) [RH = 82%]
Pressure (altimeter): 30.03 inches Hg (1017.0 mb)
Winds: from the W (260 degrees) at 16 MPH (14 knots; 7.2 m/s)
gusting to 28 MPH (24 knots; 12.3 m/s)
Visibility: 6 or more miles (10+ km)
Ceiling: at least 12,000 feet AGL
Clouds: few clouds at 2800 feet AGL
scattered clouds at 6000 feet AGL
Weather: no significant weather observed at this time

METAR text: LEBB 250630Z 26011KT 210V300 6000 RA FEW020 SCT032 BKN050 12/10 Q1017 TEMPO 28025G38KT 3000 TSRA BKN025CB
Conditions at: LEBB (BILBAO/SONDICA , ES) observed 0630 UTC 25 September 2020
Temperature: 12.0°C (54°F)
Dewpoint: 10.0°C (50°F) [RH = 88%]
Pressure (altimeter): 30.03 inches Hg (1017.0 mb)
Winds: from the W (260 degrees) at 13 MPH (11 knots; 5.7 m/s)
Visibility: 4 miles ( 6 km)
Ceiling: 5000 feet AGL
Clouds: few clouds at 2000 feet AGL
scattered clouds at 3200 feet AGL
broken clouds at 5000 feet AGL
Weather: RA  (moderate rain)

METAR text: LEBB 250615Z 27010KT 210V320 8000 -RA FEW015 SCT028 BKN050 12/10 Q1017 RERA TEMPO RA
Conditions at: LEBB (BILBAO/SONDICA , ES) observed 0615 UTC 25 September 2020
Temperature: 12.0°C (54°F)
Dewpoint: 10.0°C (50°F) [RH = 88%]
Pressure (altimeter): 30.03 inches Hg (1017.0 mb)
Winds: from the W (270 degrees) at 12 MPH (10 knots; 5.1 m/s)
Visibility: 5 miles ( 8 km)
Ceiling: 5000 feet AGL
Clouds: few clouds at 1500 feet AGL
scattered clouds at 2800 feet AGL
broken clouds at 5000 feet AGL
Weather: -RA  (light rain)

METAR text: LEBB 250608Z 27011KT 220V320 2500 RA VCTS FEW020CB SCT032 BKN050 12/10 Q1017 TEMPO 6000 -RA
Conditions at: LEBB (BILBAO/SONDICA , ES) observed 0608 UTC 25 September 2020
Temperature: 12.0°C (54°F)
Dewpoint: 10.0°C (50°F) [RH = 88%]
Pressure (altimeter): 30.03 inches Hg (1017.0 mb)
Winds: from the W (270 degrees) at 13 MPH (11 knots; 5.7 m/s)
Visibility: 1.55 miles (2.49 km)
Ceiling: 5000 feet AGL
Clouds: few clouds at 2000 feet AGL
scattered clouds at 3200 feet AGL
broken clouds at 5000 feet AGL
Weather: RA VCTS  (moderate rain, thunderstorm in vicinity)

METAR text: LEBB 250600Z 27010KT 220V300 4500 RA VCTS FEW020CB SCT032 BKN046 12/10 Q1017 TEMPO 6000 -RA
Conditions at: LEBB (BILBAO/SONDICA , ES) observed 0600 UTC 25 September 2020
Temperature: 12.0°C (54°F)
Dewpoint: 10.0°C (50°F) [RH = 88%]
Pressure (altimeter): 30.03 inches Hg (1017.0 mb)
Winds: from the W (270 degrees) at 12 MPH (10 knots; 5.1 m/s)
Visibility: 2.80 miles (4.51 km)
Ceiling: 4600 feet AGL
Clouds: few clouds at 2000 feet AGL
scattered clouds at 3200 feet AGL
broken clouds at 4600 feet AGL
Weather: RA VCTS  (moderate rain, thunderstorm in vicinity)

METAR text: LEBB 250549Z 27012G25KT 230V300 4500 RA FEW015 SCT032 BKN060 12/10 Q1017 TEMPO 6000 -RA
Conditions at: LEBB (BILBAO/SONDICA , ES) observed 0549 UTC 25 September 2020
Temperature: 12.0°C (54°F)
Dewpoint: 10.0°C (50°F) [RH = 88%]
Pressure (altimeter): 30.03 inches Hg (1017.0 mb)
Winds: from the W (270 degrees) at 14 MPH (12 knots; 6.2 m/s)
gusting to 29 MPH (25 knots; 12.9 m/s)
Visibility: 2.80 miles (4.51 km)
Ceiling: 6000 feet AGL
Clouds: few clouds at 1500 feet AGL
scattered clouds at 3200 feet AGL
broken clouds at 6000 feet AGL
Weather: RA  (moderate rain)

METAR text: LEBB 250530Z 27012G25KT 230V300 9999 -RA FEW015 SCT032 BKN060 12/09 Q1017 TEMPO RA
Conditions at: LEBB (BILBAO/SONDICA , ES) observed 0530 UTC 25 September 2020
Temperature: 12.0°C (54°F)
Dewpoint: 9.0°C (48°F) [RH = 82%]
Pressure (altimeter): 30.03 inches Hg (1017.0 mb)
Winds: from the W (270 degrees) at 14 MPH (12 knots; 6.2 m/s)
gusting to 29 MPH (25 knots; 12.9 m/s)
Visibility: 6 or more miles (10+ km)
Ceiling: 6000 feet AGL
Clouds: few clouds at 1500 feet AGL
scattered clouds at 3200 feet AGL
broken clouds at 6000 feet AGL
Weather: -RA  (light rain)

METAR text: LEBB 250500Z 27012G23KT 200V310 9999 -RA FEW016 SCT044 12/09 Q1017 RERA TEMPO RA
Conditions at: LEBB (BILBAO/SONDICA , ES) observed 0500 UTC 25 September 2020
Temperature: 12.0°C (54°F)
Dewpoint: 9.0°C (48°F) [RH = 82%]
Pressure (altimeter): 30.03 inches Hg (1017.0 mb)
Winds: from the W (270 degrees) at 14 MPH (12 knots; 6.2 m/s)
gusting to 26 MPH (23 knots; 11.8 m/s)
Visibility: 6 or more miles (10+ km)
Ceiling: at least 12,000 feet AGL
Clouds: few clouds at 1600 feet AGL
scattered clouds at 4400 feet AGL
Weather: -RA  (light rain)

METAR text: LEBB 250453Z 27012G23KT 200V320 9999 -RA FEW016 SCT044 12/09 Q1017 RERA TEMPO -RA
Conditions at: LEBB (BILBAO/SONDICA , ES) observed 0453 UTC 25 September 2020
Temperature: 12.0°C (54°F)
Dewpoint: 9.0°C (48°F) [RH = 82%]
Pressure (altimeter): 30.03 inches Hg (1017.0 mb)
Winds: from the W (270 degrees) at 14 MPH (12 knots; 6.2 m/s)
gusting to 26 MPH (23 knots; 11.8 m/s)
Visibility: 6 or more miles (10+ km)
Ceiling: at least 12,000 feet AGL
Clouds: few clouds at 1600 feet AGL
scattered clouds at 4400 feet AGL
Weather: -RA  (light rain)

METAR text: LEBB 250442Z 26009G22KT 210V300 6000 RA FEW030 BKN046 12/09 Q1017 TEMPO -RA
Conditions at: LEBB (BILBAO/SONDICA , ES) observed 0442 UTC 25 September 2020
Temperature: 12.0°C (54°F)
Dewpoint: 9.0°C (48°F) [RH = 82%]
Pressure (altimeter): 30.03 inches Hg (1017.0 mb)
Winds: from the W (260 degrees) at 10 MPH (9 knots; 4.6 m/s)
gusting to 25 MPH (22 knots; 11.3 m/s)
Visibility: 4 miles ( 6 km)
Ceiling: 4600 feet AGL
Clouds: few clouds at 3000 feet AGL
broken clouds at 4600 feet AGL
Weather: RA  (moderate rain)

METAR text: LEBB 250430Z 25006KT 190V300 9999 FEW030 SCT044 12/09 Q1016 RERA TEMPO RA
Conditions at: LEBB (BILBAO/SONDICA , ES) observed 0430 UTC 25 September 2020
Temperature: 12.0°C (54°F)
Dewpoint: 9.0°C (48°F) [RH = 82%]
Pressure (altimeter): 30.00 inches Hg (1016.0 mb)
Winds: from the WSW (250 degrees) at 7 MPH (6 knots; 3.1 m/s)
Visibility: 6 or more miles (10+ km)
Ceiling: at least 12,000 feet AGL
Clouds: few clouds at 3000 feet AGL
scattered clouds at 4400 feet AGL
Weather: no significant weather observed at this time

METAR text: LEBB 250411Z 26009KT 210V300 9999 -RA FEW019 SCT044 BKN055 12/09 Q1016 RERA TEMPO RA
Conditions at: LEBB (BILBAO/SONDICA , ES) observed 0411 UTC 25 September 2020
Temperature: 12.0°C (54°F)
Dewpoint: 9.0°C (48°F) [RH = 82%]
Pressure (altimeter): 30.00 inches Hg (1016.0 mb)
Winds: from the W (260 degrees) at 10 MPH (9 knots; 4.6 m/s)
Visibility: 6 or more miles (10+ km)
Ceiling: 5500 feet AGL
Clouds: few clouds at 1900 feet AGL
scattered clouds at 4400 feet AGL
broken clouds at 5500 feet AGL
Weather: -RA  (light rain)

METAR text: LEBB 250400Z 25010G20KT 200V300 8000 RA FEW019 SCT032 BKN044 12/09 Q1017 TEMPO -RA
Conditions at: LEBB (BILBAO/SONDICA , ES) observed 0400 UTC 25 September 2020
Temperature: 12.0°C (54°F)
Dewpoint: 9.0°C (48°F) [RH = 82%]
Pressure (altimeter): 30.03 inches Hg (1017.0 mb)
Winds: from the WSW (250 degrees) at 12 MPH (10 knots; 5.1 m/s)
gusting to 23 MPH (20 knots; 10.3 m/s)
Visibility: 5 miles ( 8 km)
Ceiling: 4400 feet AGL
Clouds: few clouds at 1900 feet AGL
scattered clouds at 3200 feet AGL
broken clouds at 4400 feet AGL
Weather: RA  (moderate rain)

METAR text: LEBB 250354Z 26010G20KT 220V300 6000 RA FEW019 SCT032 BKN044 12/09 Q1017 TEMPO -RA
Conditions at: LEBB (BILBAO/SONDICA , ES) observed 0354 UTC 25 September 2020
Temperature: 12.0°C (54°F)
Dewpoint: 9.0°C (48°F) [RH = 82%]
Pressure (altimeter): 30.03 inches Hg (1017.0 mb)
Winds: from the W (260 degrees) at 12 MPH (10 knots; 5.1 m/s)
gusting to 23 MPH (20 knots; 10.3 m/s)
Visibility: 4 miles ( 6 km)
Ceiling: 4400 feet AGL
Clouds: few clouds at 1900 feet AGL
scattered clouds at 3200 feet AGL
broken clouds at 4400 feet AGL
Weather: RA  (moderate rain)

METAR text: LEBB 250330Z 27010KT 200V300 8000 -RA FEW023 SCT036 BKN050 12/10 Q1016 RERA TEMPO RA
Conditions at: LEBB (BILBAO/SONDICA , ES) observed 0330 UTC 25 September 2020
Temperature: 12.0°C (54°F)
Dewpoint: 10.0°C (50°F) [RH = 88%]
Pressure (altimeter): 30.00 inches Hg (1016.0 mb)
Winds: from the W (270 degrees) at 12 MPH (10 knots; 5.1 m/s)
Visibility: 5 miles ( 8 km)
Ceiling: 5000 feet AGL
Clouds: few clouds at 2300 feet AGL
scattered clouds at 3600 feet AGL
broken clouds at 5000 feet AGL
Weather: -RA  (light rain)

METAR text: LEBB 250322Z 29013G23KT 230V320 6000 -RA FEW023 SCT036 BKN050 11/10 Q1017 RERA TEMPO RA
Conditions at: LEBB (BILBAO/SONDICA , ES) observed 0322 UTC 25 September 2020
Temperature: 11.0°C (52°F)
Dewpoint: 10.0°C (50°F) [RH = 94%]
Pressure (altimeter): 30.03 inches Hg (1017.0 mb)
Winds: from the WNW (290 degrees) at 15 MPH (13 knots; 6.7 m/s)
gusting to 26 MPH (23 knots; 11.8 m/s)
Visibility: 4 miles ( 6 km)
Ceiling: 5000 feet AGL
Clouds: few clouds at 2300 feet AGL
scattered clouds at 3600 feet AGL
broken clouds at 5000 feet AGL
Weather: -RA  (light rain)

METAR text: LEBB 250309Z VRB05G20KT 3500 RA FEW036 SCT050 12/09 Q1017 TEMPO 8000 -RA
Conditions at: LEBB (BILBAO/SONDICA , ES) observed 0309 UTC 25 September 2020
Temperature: 12.0°C (54°F)
Dewpoint: 9.0°C (48°F) [RH = 82%]
Pressure (altimeter): 30.03 inches Hg (1017.0 mb)
Winds: variable direction winds at 6 MPH (5 knots; 2.6 m/s)
gusting to 23 MPH (20 knots; 10.3 m/s)
Visibility: 2.17 miles (3.49 km)
Ceiling: at least 12,000 feet AGL
Clouds: few clouds at 3600 feet AGL
scattered clouds at 5000 feet AGL
Weather: RA  (moderate rain)

METAR text: LEBB 250300Z VRB02KT 9999 FEW036 SCT050 12/10 Q1016 TEMPO RA
Conditions at: LEBB (BILBAO/SONDICA , ES) observed 0300 UTC 25 September 2020
Temperature: 12.0°C (54°F)
Dewpoint: 10.0°C (50°F) [RH = 88%]
Pressure (altimeter): 30.00 inches Hg (1016.0 mb)
Winds: variable direction winds at 2 MPH (2 knots; 1.0 m/s)
Visibility: 6 or more miles (10+ km)
Ceiling: at least 12,000 feet AGL
Clouds: few clouds at 3600 feet AGL
scattered clouds at 5000 feet AGL
Weather: no significant weather observed at this time

METAR text: LEBB 250230Z AUTO 29009KT 240V320 3600 BR FEW020 SCT060 13/10 Q1016
Conditions at: LEBB (BILBAO/SONDICA , ES) observed 0230 UTC 25 September 2020
Temperature: 13.0°C (55°F)
Dewpoint: 10.0°C (50°F) [RH = 82%]
Pressure (altimeter): 30.00 inches Hg (1016.0 mb)
Winds: from the WNW (290 degrees) at 10 MPH (9 knots; 4.6 m/s)
Visibility: 2.24 miles (3.60 km)
Ceiling: at least 12,000 feet AGL
Clouds: few clouds at 2000 feet AGL
scattered clouds at 6000 feet AGL
Weather: BR  (mist)

METAR text: LEBB 250200Z AUTO 26009KT 210V300 9999 FEW070 13/09 Q1016
Conditions at: LEBB (BILBAO/SONDICA , ES) observed 0200 UTC 25 September 2020
Temperature: 13.0°C (55°F)
Dewpoint: 9.0°C (48°F) [RH = 77%]
Pressure (altimeter): 30.00 inches Hg (1016.0 mb)
Winds: from the W (260 degrees) at 10 MPH (9 knots; 4.6 m/s)
Visibility: 6 or more miles (10+ km)
Ceiling: at least 12,000 feet AGL
Clouds: few clouds at 7000 feet AGL
Weather: no significant weather observed at this time

METAR text: LEBB 250130Z AUTO 25011G21KT 210V300 9999 VV009 13/09 Q1016
Conditions at: LEBB (BILBAO/SONDICA , ES) observed 0130 UTC 25 September 2020
Temperature: 13.0°C (55°F)
Dewpoint: 9.0°C (48°F) [RH = 77%]
Pressure (altimeter): 30.00 inches Hg (1016.0 mb)
Winds: from the WSW (250 degrees) at 13 MPH (11 knots; 5.7 m/s)
gusting to 24 MPH (21 knots; 10.8 m/s)
Visibility: 6 or more miles (10+ km)
Ceiling: indefinite ceiling with vertical visibility of 900 feet AGL
Clouds: obscured sky
Weather: no significant weather observed at this time

METAR text: LEBB 250100Z AUTO 27011KT 230V300 9999 VV008 13/10 Q1016
Conditions at: LEBB (BILBAO/SONDICA , ES) observed 0100 UTC 25 September 2020
Temperature: 13.0°C (55°F)
Dewpoint: 10.0°C (50°F) [RH = 82%]
Pressure (altimeter): 30.00 inches Hg (1016.0 mb)
Winds: from the W (270 degrees) at 13 MPH (11 knots; 5.7 m/s)
Visibility: 6 or more miles (10+ km)
Ceiling: indefinite ceiling with vertical visibility of 800 feet AGL
Clouds: obscured sky
Weather: no significant weather observed at this time

METAR text: LEBB 250030Z AUTO 27010KT 200V320 9999 FEW050 14/10 Q1016
Conditions at: LEBB (BILBAO/SONDICA , ES) observed 0030 UTC 25 September 2020
Temperature: 14.0°C (57°F)
Dewpoint: 10.0°C (50°F) [RH = 77%]
Pressure (altimeter): 30.00 inches Hg (1016.0 mb)
Winds: from the W (270 degrees) at 12 MPH (10 knots; 5.1 m/s)
Visibility: 6 or more miles (10+ km)
Ceiling: at least 12,000 feet AGL
Clouds: few clouds at 5000 feet AGL
Weather: no significant weather observed at this time

METAR text: LEBB 250000Z AUTO 28013G28KT 210V320 9999 VV007 14/11 Q1016
Conditions at: LEBB (BILBAO/SONDICA , ES) observed 0000 UTC 25 September 2020
Temperature: 14.0°C (57°F)
Dewpoint: 11.0°C (52°F) [RH = 82%]
Pressure (altimeter): 30.00 inches Hg (1016.0 mb)
Winds: from the W (280 degrees) at 15 MPH (13 knots; 6.7 m/s)
gusting to 32 MPH (28 knots; 14.4 m/s)
Visibility: 6 or more miles (10+ km)
Ceiling: indefinite ceiling with vertical visibility of 700 feet AGL
Clouds: obscured sky
Weather: no significant weather observed at this time

METAR text: LEBB 242330Z AUTO 27011KT 220V310 6000 SCT024 SCT031 BKN042 13/12 Q1016
Conditions at: LEBB (BILBAO/SONDICA , ES) observed 2330 UTC 24 September 2020
Temperature: 13.0°C (55°F)
Dewpoint: 12.0°C (54°F) [RH = 94%]
Pressure (altimeter): 30.00 inches Hg (1016.0 mb)
Winds: from the W (270 degrees) at 13 MPH (11 knots; 5.7 m/s)
Visibility: 4 miles ( 6 km)
Ceiling: 4200 feet AGL
Clouds: scattered clouds at 2400 feet AGL
scattered clouds at 3100 feet AGL
broken clouds at 4200 feet AGL
Weather: no significant weather observed at this time

METAR text: LEBB 242300Z AUTO 27010KT 220V310 9999 FEW046 BKN055 14/11 Q1016
Conditions at: LEBB (BILBAO/SONDICA , ES) observed 2300 UTC 24 September 2020
Temperature: 14.0°C (57°F)
Dewpoint: 11.0°C (52°F) [RH = 82%]
Pressure (altimeter): 30.00 inches Hg (1016.0 mb)
Winds: from the W (270 degrees) at 12 MPH (10 knots; 5.1 m/s)
Visibility: 6 or more miles (10+ km)
Ceiling: 5500 feet AGL
Clouds: few clouds at 4600 feet AGL
broken clouds at 5500 feet AGL
Weather: no significant weather observed at this time

METAR text: LEBB 242230Z AUTO 30022G39KT 280V340 2400 BR VV014 13/12 Q1016
Conditions at: LEBB (BILBAO/SONDICA , ES) observed 2230 UTC 24 September 2020
Temperature: 13.0°C (55°F)
Dewpoint: 12.0°C (54°F) [RH = 94%]
Pressure (altimeter): 30.00 inches Hg (1016.0 mb)
Winds: from the WNW (300 degrees) at 25 MPH (22 knots; 11.3 m/s)
gusting to 45 MPH (39 knots; 20.1 m/s)
Visibility: 1.49 miles (2.40 km)
Ceiling: indefinite ceiling with vertical visibility of 1400 feet AGL
Clouds: obscured sky
Weather: BR  (mist)

METAR text: LEBB 242200Z AUTO 29016G31KT 250V330 9999 VV007 14/12 Q1016
Conditions at: LEBB (BILBAO/SONDICA , ES) observed 2200 UTC 24 September 2020
Temperature: 14.0°C (57°F)
Dewpoint: 12.0°C (54°F) [RH = 88%]
Pressure (altimeter): 30.00 inches Hg (1016.0 mb)
Winds: from the WNW (290 degrees) at 18 MPH (16 knots; 8.2 m/s)
gusting to 36 MPH (31 knots; 15.9 m/s)
Visibility: 6 or more miles (10+ km)
Ceiling: indefinite ceiling with vertical visibility of 700 feet AGL
Clouds: obscured sky
Weather: no significant weather observed at this time

METAR text: LEBB 242130Z 28015KT 240V300 9999 -RA FEW015 BKN065 14/12 Q1015 TEMPO RA
Conditions at: LEBB (BILBAO/SONDICA , ES) observed 2130 UTC 24 September 2020
Temperature: 14.0°C (57°F)
Dewpoint: 12.0°C (54°F) [RH = 88%]
Pressure (altimeter): 29.97 inches Hg (1015.0 mb)
Winds: from the W (280 degrees) at 17 MPH (15 knots; 7.7 m/s)
Visibility: 6 or more miles (10+ km)
Ceiling: 6500 feet AGL
Clouds: few clouds at 1500 feet AGL
broken clouds at 6500 feet AGL
Weather: -RA  (light rain)

METAR text: LEBB 242100Z 29018KT 260V320 9000 -RA FEW010 BKN024 15/14 Q1015 RERA TEMPO RA
Conditions at: LEBB (BILBAO/SONDICA , ES) observed 2100 UTC 24 September 2020
Temperature: 15.0°C (59°F)
Dewpoint: 14.0°C (57°F) [RH = 94%]
Pressure (altimeter): 29.97 inches Hg (1015.0 mb)
Winds: from the WNW (290 degrees) at 21 MPH (18 knots; 9.3 m/s)
Visibility: 6 miles ( 9 km)
Ceiling: 2400 feet AGL
Clouds: few clouds at 1000 feet AGL
broken clouds at 2400 feet AGL
Weather: -RA  (light rain)

METAR text: LEBB 242037Z 29020G30KT 250V320 9999 -RA FEW010 SCT022 BKN030 15/13 Q1015 RERA TEMPO RA
Conditions at: LEBB (BILBAO/SONDICA , ES) observed 2037 UTC 24 September 2020
Temperature: 15.0°C (59°F)
Dewpoint: 13.0°C (55°F) [RH = 88%]
Pressure (altimeter): 29.97 inches Hg (1015.0 mb)
Winds: from the WNW (290 degrees) at 23 MPH (20 knots; 10.3 m/s)
gusting to 34 MPH (30 knots; 15.4 m/s)
Visibility: 6 or more miles (10+ km)
Ceiling: 3000 feet AGL
Clouds: few clouds at 1000 feet AGL
scattered clouds at 2200 feet AGL
broken clouds at 3000 feet AGL
Weather: -RA  (light rain)

METAR text: LEBB 242030Z 29017G30KT 250V320 9000 RA FEW010 BKN022 15/14 Q1015 TEMPO -RA
Conditions at: LEBB (BILBAO/SONDICA , ES) observed 2030 UTC 24 September 2020
Temperature: 15.0°C (59°F)
Dewpoint: 14.0°C (57°F) [RH = 94%]
Pressure (altimeter): 29.97 inches Hg (1015.0 mb)
Winds: from the WNW (290 degrees) at 20 MPH (17 knots; 8.7 m/s)
gusting to 34 MPH (30 knots; 15.4 m/s)
Visibility: 6 miles ( 9 km)
Ceiling: 2200 feet AGL
Clouds: few clouds at 1000 feet AGL
broken clouds at 2200 feet AGL
Weather: RA  (moderate rain)

METAR text: LEBB 242022Z 29016KT 260V320 9000 RA FEW010 BKN025 15/14 Q1014 TEMPO -RA
Conditions at: LEBB (BILBAO/SONDICA , ES) observed 2022 UTC 24 September 2020
Temperature: 15.0°C (59°F)
Dewpoint: 14.0°C (57°F) [RH = 94%]
Pressure (altimeter): 29.94 inches Hg (1014.0 mb)
Winds: from the WNW (290 degrees) at 18 MPH (16 knots; 8.2 m/s)
Visibility: 6 miles ( 9 km)
Ceiling: 2500 feet AGL
Clouds: few clouds at 1000 feet AGL
broken clouds at 2500 feet AGL
Weather: RA  (moderate rain)

METAR text: LEBB 242009Z 29017G31KT 260V330 9999 -RA FEW010 SCT022 BKN055 16/13 Q1014 RERA TEMPO 3000 RA
Conditions at: LEBB (BILBAO/SONDICA , ES) observed 2009 UTC 24 September 2020
Temperature: 16.0°C (61°F)
Dewpoint: 13.0°C (55°F) [RH = 82%]
Pressure (altimeter): 29.94 inches Hg (1014.0 mb)
Winds: from the WNW (290 degrees) at 20 MPH (17 knots; 8.7 m/s)
gusting to 36 MPH (31 knots; 15.9 m/s)
Visibility: 6 or more miles (10+ km)
Ceiling: 5500 feet AGL
Clouds: few clouds at 1000 feet AGL
scattered clouds at 2200 feet AGL
broken clouds at 5500 feet AGL
Weather: -RA  (light rain)

METAR text: LEBB 242000Z 29019G31KT 250V320 8000 RA FEW015 BKN030 16/14 Q1014 TEMPO 3000 RA
Conditions at: LEBB (BILBAO/SONDICA , ES) observed 2000 UTC 24 September 2020
Temperature: 16.0°C (61°F)
Dewpoint: 14.0°C (57°F) [RH = 88%]
Pressure (altimeter): 29.94 inches Hg (1014.0 mb)
Winds: from the WNW (290 degrees) at 22 MPH (19 knots; 9.8 m/s)
gusting to 36 MPH (31 knots; 15.9 m/s)
Visibility: 5 miles ( 8 km)
Ceiling: 3000 feet AGL
Clouds: few clouds at 1500 feet AGL
broken clouds at 3000 feet AGL
Weather: RA  (moderate rain)

METAR text: LEBB 241930Z 28014G26KT 240V300 9999 -RA FEW015 BKN060 17/13 Q1014 TEMPO 3000 RA
Conditions at: LEBB (BILBAO/SONDICA , ES) observed 1930 UTC 24 September 2020
Temperature: 17.0°C (63°F)
Dewpoint: 13.0°C (55°F) [RH = 77%]
Pressure (altimeter): 29.94 inches Hg (1014.0 mb)
Winds: from the W (280 degrees) at 16 MPH (14 knots; 7.2 m/s)
gusting to 30 MPH (26 knots; 13.4 m/s)
Visibility: 6 or more miles (10+ km)
Ceiling: 6000 feet AGL
Clouds: few clouds at 1500 feet AGL
broken clouds at 6000 feet AGL
Weather: -RA  (light rain)

METAR text: LEBB 241900Z 28008KT 220V320 9999 -RA FEW010 BKN045 17/14 Q1013 TEMPO 3000 RA
Conditions at: LEBB (BILBAO/SONDICA , ES) observed 1900 UTC 24 September 2020
Temperature: 17.0°C (63°F)
Dewpoint: 14.0°C (57°F) [RH = 82%]
Pressure (altimeter): 29.91 inches Hg (1013.0 mb)
Winds: from the W (280 degrees) at 9 MPH (8 knots; 4.1 m/s)
Visibility: 6 or more miles (10+ km)
Ceiling: 4500 feet AGL
Clouds: few clouds at 1000 feet AGL
broken clouds at 4500 feet AGL
Weather: -RA  (light rain)

METAR text: LEBB 241830Z 28014KT 250V310 8000 -RA FEW015 BKN050 17/14 Q1013 TEMPO 3000 RA
Conditions at: LEBB (BILBAO/SONDICA , ES) observed 1830 UTC 24 September 2020
Temperature: 17.0°C (63°F)
Dewpoint: 14.0°C (57°F) [RH = 82%]
Pressure (altimeter): 29.91 inches Hg (1013.0 mb)
Winds: from the W (280 degrees) at 16 MPH (14 knots; 7.2 m/s)
Visibility: 5 miles ( 8 km)
Ceiling: 5000 feet AGL
Clouds: few clouds at 1500 feet AGL
broken clouds at 5000 feet AGL
Weather: -RA  (light rain)

METAR text: LEBB 241800Z 29013G23KT 250V320 9999 FEW035 BKN050 20/12 Q1012 TEMPO 3000 RA
Conditions at: LEBB (BILBAO/SONDICA , ES) observed 1800 UTC 24 September 2020
Temperature: 20.0°C (68°F)
Dewpoint: 12.0°C (54°F) [RH = 60%]
Pressure (altimeter): 29.88 inches Hg (1012.0 mb)
Winds: from the WNW (290 degrees) at 15 MPH (13 knots; 6.7 m/s)
gusting to 26 MPH (23 knots; 11.8 m/s)
Visibility: 6 or more miles (10+ km)
Ceiling: 5000 feet AGL
Clouds: few clouds at 3500 feet AGL
broken clouds at 5000 feet AGL
Weather: no significant weather observed at this time

METAR text: LEBB 241730Z 28009KT 250V320 9999 FEW035 BKN058 20/12 Q1012 TEMPO 3000 RA
Conditions at: LEBB (BILBAO/SONDICA , ES) observed 1730 UTC 24 September 2020
Temperature: 20.0°C (68°F)
Dewpoint: 12.0°C (54°F) [RH = 60%]
Pressure (altimeter): 29.88 inches Hg (1012.0 mb)
Winds: from the W (280 degrees) at 10 MPH (9 knots; 4.6 m/s)
Visibility: 6 or more miles (10+ km)
Ceiling: 5800 feet AGL
Clouds: few clouds at 3500 feet AGL
broken clouds at 5800 feet AGL
Weather: no significant weather observed at this time

METAR text: LEBB 241700Z 29015KT 260V320 9999 FEW028 SCT050 20/12 Q1012 NOSIG
Conditions at: LEBB (BILBAO/SONDICA , ES) observed 1700 UTC 24 September 2020
Temperature: 20.0°C (68°F)
Dewpoint: 12.0°C (54°F) [RH = 60%]
Pressure (altimeter): 29.88 inches Hg (1012.0 mb)
Winds: from the WNW (290 degrees) at 17 MPH (15 knots; 7.7 m/s)
Visibility: 6 or more miles (10+ km)
Ceiling: at least 12,000 feet AGL
Clouds: few clouds at 2800 feet AGL
scattered clouds at 5000 feet AGL
Weather: no significant weather observed at this time

METAR text: LEBB 241630Z 30019G31KT 270V330 9999 FEW028 SCT050 20/13 Q1012 NOSIG
Conditions at: LEBB (BILBAO/SONDICA , ES) observed 1630 UTC 24 September 2020
Temperature: 20.0°C (68°F)
Dewpoint: 13.0°C (55°F) [RH = 64%]
Pressure (altimeter): 29.88 inches Hg (1012.0 mb)
Winds: from the WNW (300 degrees) at 22 MPH (19 knots; 9.8 m/s)
gusting to 36 MPH (31 knots; 15.9 m/s)
Visibility: 6 or more miles (10+ km)
Ceiling: at least 12,000 feet AGL
Clouds: few clouds at 2800 feet AGL
scattered clouds at 5000 feet AGL
Weather: no significant weather observed at this time

METAR text: LEBB 241600Z 31014KT 9999 FEW028 SCT050 21/14 Q1011 NOSIG
Conditions at: LEBB (BILBAO/SONDICA , ES) observed 1600 UTC 24 September 2020
Temperature: 21.0°C (70°F)
Dewpoint: 14.0°C (57°F) [RH = 64%]
Pressure (altimeter): 29.85 inches Hg (1011.0 mb)
Winds: from the NW (310 degrees) at 16 MPH (14 knots; 7.2 m/s)
Visibility: 6 or more miles (10+ km)
Ceiling: at least 12,000 feet AGL
Clouds: few clouds at 2800 feet AGL
scattered clouds at 5000 feet AGL
Weather: no significant weather observed at this time

METAR text: LEBB 241530Z 32008KT 290V360 9999 FEW038 22/13 Q1011 NOSIG
Conditions at: LEBB (BILBAO/SONDICA , ES) observed 1530 UTC 24 September 2020
Temperature: 22.0°C (72°F)
Dewpoint: 13.0°C (55°F) [RH = 57%]
Pressure (altimeter): 29.85 inches Hg (1011.0 mb)
Winds: from the NW (320 degrees) at 9 MPH (8 knots; 4.1 m/s)
Visibility: 6 or more miles (10+ km)
Ceiling: at least 12,000 feet AGL
Clouds: few clouds at 3800 feet AGL
Weather: no significant weather observed at this time

METAR text: LEBB 241500Z 29010KT 260V350 9999 FEW038 22/11 Q1011 NOSIG
Conditions at: LEBB (BILBAO/SONDICA , ES) observed 1500 UTC 24 September 2020
Temperature: 22.0°C (72°F)
Dewpoint: 11.0°C (52°F) [RH = 50%]
Pressure (altimeter): 29.85 inches Hg (1011.0 mb)
Winds: from the WNW (290 degrees) at 12 MPH (10 knots; 5.1 m/s)
Visibility: 6 or more miles (10+ km)
Ceiling: at least 12,000 feet AGL
Clouds: few clouds at 3800 feet AGL
Weather: no significant weather observed at this time

METAR text: LEBB 241430Z 32013KT 290V350 9999 SCT038 23/12 Q1011 NOSIG
Conditions at: LEBB (BILBAO/SONDICA , ES) observed 1430 UTC 24 September 2020
Temperature: 23.0°C (73°F)
Dewpoint: 12.0°C (54°F) [RH = 50%]
Pressure (altimeter): 29.85 inches Hg (1011.0 mb)
Winds: from the NW (320 degrees) at 15 MPH (13 knots; 6.7 m/s)
Visibility: 6 or more miles (10+ km)
Ceiling: at least 12,000 feet AGL
Clouds: scattered clouds at 3800 feet AGL
Weather: no significant weather observed at this time

METAR text: LEBB 241400Z 31010KT 270V010 9999 FEW033 23/10 Q1011 NOSIG
Conditions at: LEBB (BILBAO/SONDICA , ES) observed 1400 UTC 24 September 2020
Temperature: 23.0°C (73°F)
Dewpoint: 10.0°C (50°F) [RH = 44%]
Pressure (altimeter): 29.85 inches Hg (1011.0 mb)
Winds: from the NW (310 degrees) at 12 MPH (10 knots; 5.1 m/s)
Visibility: 6 or more miles (10+ km)
Ceiling: at least 12,000 feet AGL
Clouds: few clouds at 3300 feet AGL
Weather: no significant weather observed at this time

METAR text: LEBB 241330Z 32010KT 290V360 9999 FEW033 22/12 Q1011 NOSIG
Conditions at: LEBB (BILBAO/SONDICA , ES) observed 1330 UTC 24 September 2020
Temperature: 22.0°C (72°F)
Dewpoint: 12.0°C (54°F) [RH = 53%]
Pressure (altimeter): 29.85 inches Hg (1011.0 mb)
Winds: from the NW (320 degrees) at 12 MPH (10 knots; 5.1 m/s)
Visibility: 6 or more miles (10+ km)
Ceiling: at least 12,000 feet AGL
Clouds: few clouds at 3300 feet AGL
Weather: no significant weather observed at this time

METAR text: LEBB 241300Z 31008KT 250V350 9999 FEW033 22/13 Q1011 NOSIG
Conditions at: LEBB (BILBAO/SONDICA , ES) observed 1300 UTC 24 September 2020
Temperature: 22.0°C (72°F)
Dewpoint: 13.0°C (55°F) [RH = 57%]
Pressure (altimeter): 29.85 inches Hg (1011.0 mb)
Winds: from the NW (310 degrees) at 9 MPH (8 knots; 4.1 m/s)
Visibility: 6 or more miles (10+ km)
Ceiling: at least 12,000 feet AGL
Clouds: few clouds at 3300 feet AGL
Weather: no significant weather observed at this time

METAR text: LEBB 241230Z 32005KT 240V050 9999 FEW034 22/14 Q1012 NOSIG
Conditions at: LEBB (BILBAO/SONDICA , ES) observed 1230 UTC 24 September 2020
Temperature: 22.0°C (72°F)
Dewpoint: 14.0°C (57°F) [RH = 60%]
Pressure (altimeter): 29.88 inches Hg (1012.0 mb)
Winds: from the NW (320 degrees) at 6 MPH (5 knots; 2.6 m/s)
Visibility: 6 or more miles (10+ km)
Ceiling: at least 12,000 feet AGL
Clouds: few clouds at 3400 feet AGL
Weather: no significant weather observed at this time

METAR text: LEBB 241200Z 33006KT 290V020 9999 FEW040 21/14 Q1012 NOSIG
Conditions at: LEBB (BILBAO/SONDICA , ES) observed 1200 UTC 24 September 2020
Temperature: 21.0°C (70°F)
Dewpoint: 14.0°C (57°F) [RH = 64%]
Pressure (altimeter): 29.88 inches Hg (1012.0 mb)
Winds: from the NNW (330 degrees) at 7 MPH (6 knots; 3.1 m/s)
Visibility: 6 or more miles (10+ km)
Ceiling: at least 12,000 feet AGL
Clouds: few clouds at 4000 feet AGL
Weather: no significant weather observed at this time

METAR text: LEBB 241130Z 34006KT 320V020 9999 FEW035 21/14 Q1012 NOSIG
Conditions at: LEBB (BILBAO/SONDICA , ES) observed 1130 UTC 24 September 2020
Temperature: 21.0°C (70°F)
Dewpoint: 14.0°C (57°F) [RH = 64%]
Pressure (altimeter): 29.88 inches Hg (1012.0 mb)
Winds: from the NNW (340 degrees) at 7 MPH (6 knots; 3.1 m/s)
Visibility: 6 or more miles (10+ km)
Ceiling: at least 12,000 feet AGL
Clouds: few clouds at 3500 feet AGL
Weather: no significant weather observed at this time

METAR text: LEBB 241100Z 32006KT 290V360 9999 FEW030 SCT058 21/13 Q1012 NOSIG
Conditions at: LEBB (BILBAO/SONDICA , ES) observed 1100 UTC 24 September 2020
Temperature: 21.0°C (70°F)
Dewpoint: 13.0°C (55°F) [RH = 60%]
Pressure (altimeter): 29.88 inches Hg (1012.0 mb)
Winds: from the NW (320 degrees) at 7 MPH (6 knots; 3.1 m/s)
Visibility: 6 or more miles (10+ km)
Ceiling: at least 12,000 feet AGL
Clouds: few clouds at 3000 feet AGL
scattered clouds at 5800 feet AGL
Weather: no significant weather observed at this time

METAR text: LEBB 241030Z 33007KT 290V350 9999 FEW025 SCT030 20/13 Q1012 NOSIG
Conditions at: LEBB (BILBAO/SONDICA , ES) observed 1030 UTC 24 September 2020
Temperature: 20.0°C (68°F)
Dewpoint: 13.0°C (55°F) [RH = 64%]
Pressure (altimeter): 29.88 inches Hg (1012.0 mb)
Winds: from the NNW (330 degrees) at 8 MPH (7 knots; 3.6 m/s)
Visibility: 6 or more miles (10+ km)
Ceiling: at least 12,000 feet AGL
Clouds: few clouds at 2500 feet AGL
scattered clouds at 3000 feet AGL
Weather: no significant weather observed at this time

METAR text: LEBB 241000Z 34003KT 290V030 9999 FEW025 SCT030 20/14 Q1012 NOSIG
Conditions at: LEBB (BILBAO/SONDICA , ES) observed 1000 UTC 24 September 2020
Temperature: 20.0°C (68°F)
Dewpoint: 14.0°C (57°F) [RH = 68%]
Pressure (altimeter): 29.88 inches Hg (1012.0 mb)
Winds: from the NNW (340 degrees) at 3 MPH (3 knots; 1.5 m/s)
Visibility: 6 or more miles (10+ km)
Ceiling: at least 12,000 feet AGL
Clouds: few clouds at 2500 feet AGL
scattered clouds at 3000 feet AGL
Weather: no significant weather observed at this time

METAR text: LEBB 240930Z 28004KT 220V320 9999 FEW025 SCT038 20/14 Q1012 NOSIG
Conditions at: LEBB (BILBAO/SONDICA , ES) observed 0930 UTC 24 September 2020
Temperature: 20.0°C (68°F)
Dewpoint: 14.0°C (57°F) [RH = 68%]
Pressure (altimeter): 29.88 inches Hg (1012.0 mb)
Winds: from the W (280 degrees) at 5 MPH (4 knots; 2.1 m/s)
Visibility: 6 or more miles (10+ km)
Ceiling: at least 12,000 feet AGL
Clouds: few clouds at 2500 feet AGL
scattered clouds at 3800 feet AGL
Weather: no significant weather observed at this time

METAR text: LEBB 240900Z 23003KT 190V280 9999 FEW025 SCT038 19/15 Q1012 NOSIG
Conditions at: LEBB (BILBAO/SONDICA , ES) observed 0900 UTC 24 September 2020
Temperature: 19.0°C (66°F)
Dewpoint: 15.0°C (59°F) [RH = 78%]
Pressure (altimeter): 29.88 inches Hg (1012.0 mb)
Winds: from the SW (230 degrees) at 3 MPH (3 knots; 1.5 m/s)
Visibility: 6 or more miles (10+ km)
Ceiling: at least 12,000 feet AGL
Clouds: few clouds at 2500 feet AGL
scattered clouds at 3800 feet AGL
Weather: no significant weather observed at this time

METAR text: LEBB 240830Z 00000KT 9999 FEW025 SCT038 BKN070 19/15 Q1012 NOSIG
Conditions at: LEBB (BILBAO/SONDICA , ES) observed 0830 UTC 24 September 2020
Temperature: 19.0°C (66°F)
Dewpoint: 15.0°C (59°F) [RH = 78%]
Pressure (altimeter): 29.88 inches Hg (1012.0 mb)
Winds: calm
Visibility: 6 or more miles (10+ km)
Ceiling: 7000 feet AGL
Clouds: few clouds at 2500 feet AGL
scattered clouds at 3800 feet AGL
broken clouds at 7000 feet AGL
Weather: no significant weather observed at this time

METAR text: LEBB 240800Z 00000KT 9999 FEW025 BKN040 18/16 Q1012 NOSIG
Conditions at: LEBB (BILBAO/SONDICA , ES) observed 0800 UTC 24 September 2020
Temperature: 18.0°C (64°F)
Dewpoint: 16.0°C (61°F) [RH = 88%]
Pressure (altimeter): 29.88 inches Hg (1012.0 mb)
Winds: calm
Visibility: 6 or more miles (10+ km)
Ceiling: 4000 feet AGL
Clouds: few clouds at 2500 feet AGL
broken clouds at 4000 feet AGL
Weather: no significant weather observed at this time

METAR text: LEBB 240730Z VRB02KT 9999 FEW020 BKN036 18/16 Q1012 NOSIG
Conditions at: LEBB (BILBAO/SONDICA , ES) observed 0730 UTC 24 September 2020
Temperature: 18.0°C (64°F)
Dewpoint: 16.0°C (61°F) [RH = 88%]
Pressure (altimeter): 29.88 inches Hg (1012.0 mb)
Winds: variable direction winds at 2 MPH (2 knots; 1.0 m/s)
Visibility: 6 or more miles (10+ km)
Ceiling: 3600 feet AGL
Clouds: few clouds at 2000 feet AGL
broken clouds at 3600 feet AGL
Weather: no significant weather observed at this time

Forecast for: LEBB (BILBAO/SONDICA , ES)
Text: TAF LEBB 251700Z 2518/2618 29015KT 9000 SCT020 BKN035 TX18/2615Z TN12/2605Z
Forecast period: 1800 UTC 25 September 2020 to 1800 UTC 26 September 2020
Forecast type: FROM: standard forecast or significant change
Winds: from the WNW (290 degrees) at 17 MPH (15 knots; 7.7 m/s)
Visibility: 6 miles (9 km)
Ceiling: 3500 feet AGL
Clouds: scattered clouds at 2000 feet AGL
broken clouds at 3500 feet AGL
Weather: no significant weather forecast for this period
Text: TEMPO 2518/2604 27018G30KT SHRA SCT025TCU
Forecast period: 1800 UTC 25 September 2020 to 0400 UTC 26 September 2020
Forecast type: TEMPORARY: The following changes expected for less than half the time period
Winds: from the W (270 degrees) at 21 MPH (18 knots; 9.3 m/s)
gusting to 34 MPH (30 knots; 15.4 m/s)
Visibility: missing
Ceiling: at least 12,000 feet AGL
Clouds: scattered clouds at 2500 feet AGL
Weather: SHRA  (rain showers)
Text: PROB30
Forecast period: 1800 to 2000 UTC 25 September 2020
Forecast type: TEMPORARY: The following changes expected for less than half the time period
Winds: from the W (280 degrees) at 26 MPH (23 knots; 11.8 m/s)
gusting to 46 MPH (40 knots; 20.6 m/s)
Visibility: 2.80 miles (4.51 km)
Ceiling: unknown
Clouds: missing
Weather: RA  (moderate rain)
Text: TEMPO 2518/2520 28023G40KT 4500 RA
Forecast period: 0400 to 1200 UTC 26 September 2020
Forecast type: TEMPORARY: The following changes expected for less than half the time period
Visibility: 1.86 miles (2.99 km)
Ceiling: 1000 feet AGL
Clouds: broken clouds at 1000 feet AGL
Weather: RA  (moderate rain)
Text: TEMPO 2604/2612 3000 RA BKN010
Forecast period: 0400 to 0900 UTC 26 September 2020
Forecast type: TEMPORARY: The following changes expected for less than half the time period
Winds: variable direction winds at 9 MPH (8 knots; 4.1 m/s)
Visibility: 0.93 miles (1.50 km)
Ceiling: 500 feet AGL
Clouds: broken clouds at 500 feet AGL
Weather: +RA  (heavy rain)
Text: PROB40
Forecast period: 1200 to 1800 UTC 26 September 2020
Forecast type: TEMPORARY: The following changes expected for less than half the time period
Winds: from the W (270 degrees) at 17 MPH (15 knots; 7.7 m/s)
gusting to 29 MPH (25 knots; 12.9 m/s)
Visibility: missing
Ceiling: unknown
Clouds: missing
Weather: RA  (moderate rain)
Text: TEMPO 2604/2609 VRB08KT 1500 +RA BKN005
Forecast period: 1600 to 1800 UTC 26 September 2020
Forecast type: TEMPORARY: The following changes expected for less than half the time period
Winds: from the WNW (290 degrees) at 25 MPH (22 knots; 11.3 m/s)
gusting to 44 MPH (38 knots; 19.5 m/s)
Visibility: 1.86 miles (2.99 km)
Ceiling: 1000 feet AGL
Clouds: broken clouds at 1000 feet AGL
Weather: +RA  (heavy rain)